createdAt,value
2023-02-12T00:01:53.780Z,43.05
2023-02-12T00:06:56.617Z,41.45
2023-02-12T00:11:59.482Z,45.50
2023-02-12T00:17:03.720Z,46.17
2023-02-12T00:22:06.529Z,45.53
2023-02-12T00:27:09.297Z,40.58
2023-02-12T00:32:14.234Z,44.35
2023-02-12T00:37:17.444Z,38.03
2023-02-12T00:42:20.235Z,38.95
2023-02-12T00:47:24.356Z,40.35
2023-02-12T00:52:27.148Z,39.88
2023-02-12T00:57:29.915Z,40.63
2023-02-12T01:02:34.101Z,35.50
2023-02-12T01:07:38.546Z,37.13
2023-02-12T01:12:41.431Z,38.60
2023-02-12T01:17:46.040Z,45.53
2023-02-12T01:22:49.285Z,43.67
2023-02-12T01:27:54.723Z,55.13
2023-02-12T01:33:00.608Z,53.88
2023-02-12T01:38:03.338Z,52.72
2023-02-12T01:43:08.013Z,51.33
2023-02-12T01:48:12.484Z,52.53
2023-02-12T01:53:20.202Z,54.70
2023-02-12T01:58:25.124Z,52.17
2023-02-12T02:03:29.402Z,54.42
2023-02-12T02:08:32.497Z,53.65
2023-02-12T02:14:01.366Z,55.65
2023-02-12T02:19:14.694Z,58.25
2023-02-12T02:24:44.656Z,58.83
2023-02-12T02:30:14.221Z,60.83
2023-02-12T02:35:25.566Z,59.20
2023-02-12T02:40:36.493Z,54.85
2023-02-12T02:45:42.857Z,56.80
2023-02-12T02:50:52.695Z,55.20
2023-02-12T02:56:00.142Z,54.85
2023-02-12T03:01:07.037Z,51.70
2023-02-12T03:06:19.214Z,50.67
2023-02-12T03:11:26.416Z,47.30
2023-02-12T03:16:32.615Z,51.17
2023-02-12T03:21:41.088Z,52.10
2023-02-12T03:26:48.323Z,46.58
2023-02-12T03:32:03.573Z,46.38
2023-02-12T03:37:11.986Z,51.20
2023-02-12T03:42:19.589Z,45.75
2023-02-12T03:47:26.843Z,50.88
2023-02-12T03:52:31.401Z,49.47
2023-02-12T03:57:40.413Z,48.47
2023-02-12T04:02:43.818Z,51.60
2023-02-12T04:07:48.260Z,54.53
2023-02-12T04:12:55.957Z,49.80
2023-02-12T04:18:08.346Z,53.80
2023-02-12T04:23:22.372Z,54.28
2023-02-12T04:28:37.139Z,53.25
2023-02-12T04:33:48.366Z,56.20
2023-02-12T04:38:55.417Z,49.85
2023-02-12T04:43:58.248Z,29.65
2023-02-12T04:49:01.079Z,27.15
2023-02-12T04:54:05.610Z,30.10
2023-02-12T04:59:09.337Z,31.05
2023-02-12T05:04:14.480Z,30.33
2023-02-12T05:09:20.582Z,33.95
2023-02-12T05:14:25.594Z,39.42
2023-02-12T05:19:28.336Z,36.60
2023-02-12T05:24:32.509Z,36.65
2023-02-12T05:29:35.277Z,35.58
2023-02-12T05:34:38.423Z,47.85
2023-02-12T05:39:42.673Z,42.83
2023-02-12T05:44:45.399Z,56.67
2023-02-12T05:49:48.235Z,50.28
2023-02-12T05:54:52.342Z,59.30
2023-02-12T05:59:55.376Z,65.63
2023-02-12T06:04:58.147Z,62.42
2023-02-12T06:10:02.405Z,66.93
2023-02-12T06:15:05.523Z,43.50
2023-02-12T06:20:08.718Z,37.72
2023-02-12T06:25:12.959Z,39.03
2023-02-12T06:30:16.552Z,38.35
2023-02-12T06:35:19.412Z,41.70
2023-02-12T06:40:23.598Z,38.28
2023-02-12T06:45:26.488Z,41.97
2023-02-12T06:50:29.481Z,41.22
2023-02-12T06:55:33.640Z,50.85
2023-02-12T07:00:36.632Z,59.17
2023-02-12T07:05:40.536Z,58.00
2023-02-12T07:10:49.651Z,50.80
2023-02-12T07:15:52.505Z,48.50
2023-02-12T07:20:57.425Z,49.13
2023-02-12T07:26:04.096Z,64.13
2023-02-12T07:31:11.447Z,69.40
2023-02-12T07:36:16.922Z,69.57
2023-02-12T07:41:23.141Z,60.30
2023-02-12T07:46:29.783Z,62.53
2023-02-12T07:51:33.777Z,67.57
2023-02-12T07:56:39.890Z,68.75
2023-02-12T08:01:44.377Z,62.13
2023-02-12T08:06:48.930Z,60.28
2023-02-12T08:11:53.710Z,60.03
2023-02-12T08:16:56.621Z,65.82
2023-02-12T08:21:59.404Z,65.53
2023-02-12T08:27:03.526Z,66.78
2023-02-12T08:32:10.731Z,54.05
2023-02-12T08:37:13.575Z,53.20
2023-02-12T08:42:17.620Z,47.10
2023-02-12T08:47:20.381Z,48.22
2023-02-12T08:52:23.076Z,45.72
2023-02-12T08:57:27.286Z,42.03
2023-02-12T09:02:30.294Z,47.40
2023-02-12T09:07:33.148Z,43.17
2023-02-12T09:12:37.257Z,46.90
2023-02-12T09:17:41.733Z,50.75
2023-02-12T09:22:44.709Z,45.53
2023-02-12T09:27:48.908Z,45.45
2023-02-12T09:32:51.614Z,43.85
2023-02-12T09:37:54.543Z,40.35
2023-02-12T09:43:07.670Z,42.95
2023-02-12T09:48:29.407Z,43.55
2023-02-12T09:53:33.937Z,45.35
2023-02-12T09:58:43.605Z,40.50
2023-02-12T10:03:47.341Z,44.97
2023-02-12T10:09:02.542Z,43.67
2023-02-12T10:14:22.748Z,42.20
2023-02-12T10:19:40.953Z,41.97
2023-02-12T10:24:53.637Z,41.63
2023-02-12T10:29:59.626Z,48.75
2023-02-12T10:35:13.381Z,38.72
2023-02-12T10:40:20.836Z,36.00
2023-02-12T10:45:27.662Z,47.83
2023-02-12T10:50:42.703Z,34.90
2023-02-12T10:55:45.552Z,34.78
2023-02-12T11:00:58.100Z,28.33
2023-02-12T11:06:14.001Z,30.85
2023-02-12T11:11:21.377Z,29.00
2023-02-12T11:16:34.035Z,28.02
2023-02-12T11:21:37.454Z,28.40
2023-02-12T11:26:40.320Z,24.75
2023-02-12T11:32:00.204Z,25.58
2023-02-12T11:37:03.199Z,21.67
2023-02-12T11:42:15.327Z,17.30
2023-02-12T11:47:22.192Z,20.88
2023-02-12T11:52:28.032Z,23.08
2023-02-12T11:57:38.730Z,30.42
2023-02-12T12:02:48.701Z,25.15
2023-02-12T12:07:56.850Z,22.55
2023-02-12T12:13:05.191Z,21.48
2023-02-12T12:18:39.536Z,22.55
2023-02-12T12:23:47.439Z,21.58
2023-02-12T12:28:56.205Z,20.52
2023-02-12T12:34:06.655Z,23.27
2023-02-12T12:39:19.638Z,23.73
2023-02-12T12:44:33.080Z,24.67
2023-02-12T12:49:56.144Z,19.08
2023-02-12T12:55:21.646Z,18.08
2023-02-12T13:00:46.122Z,27.33
2023-02-12T13:05:59.690Z,16.05
2023-02-12T13:11:11.363Z,22.08
2023-02-12T13:16:22.703Z,19.88
2023-02-12T13:21:37.348Z,21.63
2023-02-12T13:26:49.622Z,11.88
2023-02-12T13:31:56.329Z,7.55
2023-02-12T13:37:02.151Z,13.40
2023-02-12T13:42:20.822Z,12.07
2023-02-12T13:47:38.237Z,16.20
2023-02-12T13:52:50.500Z,11.48
2023-02-12T13:58:30.917Z,6.18
2023-02-12T14:03:35.967Z,8.70
2023-02-12T14:08:42.607Z,9.25
2023-02-12T14:13:53.473Z,6.15
2023-02-12T14:19:41.816Z,5.28
2023-02-12T14:24:51.827Z,4.05
2023-02-12T14:30:30.001Z,9.00
2023-02-12T14:35:34.785Z,9.63
2023-02-12T14:40:47.034Z,10.40
2023-02-12T14:45:50.238Z,11.13
2023-02-12T14:50:53.447Z,14.30
2023-02-12T14:55:59.445Z,12.15
2023-02-12T15:01:04.244Z,9.00
2023-02-12T15:06:14.440Z,7.72
2023-02-12T15:11:34.963Z,6.25
2023-02-12T15:16:48.064Z,7.78
2023-02-12T15:21:54.429Z,8.00
2023-02-12T15:27:01.102Z,16.03
2023-02-12T15:32:07.563Z,8.50
2023-02-12T15:37:10.780Z,8.50
2023-02-12T15:42:31.855Z,6.95
2023-02-12T15:47:35.885Z,8.73
2023-02-12T15:52:47.765Z,16.95
2023-02-12T15:57:53.380Z,8.57
2023-02-12T16:02:56.230Z,8.45
2023-02-12T16:07:59.895Z,8.35
2023-02-12T16:13:05.040Z,6.43
2023-02-12T16:18:08.193Z,6.40
2023-02-12T16:23:13.566Z,12.73
2023-02-12T16:28:22.890Z,6.65
2023-02-12T16:33:36.255Z,7.13
2023-02-12T16:38:43.557Z,8.23
2023-02-12T16:43:48.908Z,10.20
2023-02-12T16:48:54.088Z,10.25
2023-02-12T16:53:58.521Z,41.92
2023-02-12T16:59:03.597Z,21.63
2023-02-12T17:04:09.295Z,11.50
2023-02-12T17:09:13.276Z,11.50
2023-02-12T17:14:19.288Z,10.25
2023-02-12T17:19:22.889Z,10.93
2023-02-12T17:24:27.867Z,9.65
2023-02-12T17:29:32.061Z,10.93
2023-02-12T17:34:48.012Z,10.40
2023-02-12T17:39:51.866Z,10.07
2023-02-12T17:44:55.993Z,11.55
2023-02-12T17:50:00.789Z,13.98
2023-02-12T17:55:04.677Z,12.75
2023-02-12T18:00:11.764Z,12.77
2023-02-12T18:05:16.777Z,11.27
2023-02-12T18:10:19.527Z,12.30
2023-02-12T18:15:23.665Z,13.98
2023-02-12T18:20:26.609Z,12.60
2023-02-12T18:25:29.436Z,12.88
2023-02-12T18:30:33.672Z,14.32
2023-02-12T18:35:36.832Z,15.48
2023-02-12T18:40:40.885Z,16.48
2023-02-12T18:45:45.025Z,17.52
2023-02-12T18:50:51.566Z,19.45
2023-02-12T18:55:54.406Z,23.23
2023-02-12T19:00:58.833Z,18.92
2023-02-12T19:06:04.512Z,21.67
2023-02-12T19:11:08.561Z,18.50
2023-02-12T19:16:14.819Z,18.40
2023-02-12T19:21:18.765Z,16.63
2023-02-12T19:26:22.169Z,14.30
2023-02-12T19:31:28.121Z,15.18
2023-02-12T19:36:33.531Z,12.60
2023-02-12T19:41:40.765Z,14.95
2023-02-12T19:46:45.845Z,14.32
2023-02-12T19:51:49.058Z,14.60
2023-02-12T19:56:52.728Z,12.50
2023-02-12T20:01:57.239Z,12.27
2023-02-12T20:06:59.990Z,14.15
2023-02-12T20:12:03.466Z,12.82
2023-02-12T20:17:07.557Z,13.98
2023-02-12T20:22:10.713Z,12.38
2023-02-12T20:27:14.029Z,12.00
2023-02-12T20:32:18.100Z,14.27
2023-02-12T20:37:20.907Z,13.73
2023-02-12T20:42:23.698Z,12.60
2023-02-12T20:47:29.356Z,12.65
2023-02-12T20:52:32.235Z,14.25
2023-02-12T20:57:35.078Z,12.52
2023-02-12T21:02:39.242Z,13.90
2023-02-12T21:07:42.249Z,12.90
2023-02-12T21:12:45.023Z,14.32
2023-02-12T21:17:49.212Z,23.88
2023-02-12T21:22:51.962Z,18.25
2023-02-12T21:27:54.642Z,20.88
2023-02-12T21:32:59.097Z,15.00
2023-02-12T21:38:01.808Z,13.60
2023-02-12T21:43:04.574Z,12.45
2023-02-12T21:48:09.147Z,12.82
2023-02-12T21:53:11.851Z,13.25
2023-02-12T21:58:14.930Z,14.60
2023-02-12T22:03:19.232Z,13.55
2023-02-12T22:08:22.055Z,14.55
2023-02-12T22:13:24.921Z,13.98
2023-02-12T22:18:29.128Z,14.38
2023-02-12T22:23:31.907Z,14.10
2023-02-12T22:28:35.386Z,13.65
2023-02-12T22:33:39.567Z,14.25
2023-02-12T22:38:42.943Z,14.35
2023-02-12T22:43:46.065Z,14.05
2023-02-12T22:48:50.266Z,13.48
2023-02-12T22:53:53.342Z,15.80
2023-02-12T22:58:57.785Z,15.77
2023-02-12T23:04:02.350Z,13.63
2023-02-12T23:09:06.426Z,13.15
2023-02-12T23:14:09.248Z,16.60
2023-02-12T23:19:14.077Z,15.35
2023-02-12T23:24:17.335Z,14.80
2023-02-12T23:29:20.190Z,15.27
2023-02-12T23:34:24.301Z,14.43
2023-02-12T23:39:27.194Z,15.07
2023-02-12T23:44:29.989Z,15.02
2023-02-12T23:49:35.185Z,14.35
2023-02-12T23:54:38.034Z,17.05
2023-02-12T23:59:40.823Z,15.57
